sensor_id;sensor_type;location;lat;lon;timestamp;P1;durP1;ratioP1;P2;durP2;ratioP2
9997;SDS011;5038;53.064;8.624;2023-08-17T00:02:14;5.87;;;3.60;;
9997;SDS011;5038;53.064;8.624;2023-08-17T00:04:44;6.47;;;4.20;;
9997;SDS011;5038;53.064;8.624;2023-08-17T00:07:12;5.73;;;3.90;;
9997;SDS011;5038;53.064;8.624;2023-08-17T00:09:40;5.60;;;3.97;;
9997;SDS011;5038;53.064;8.624;2023-08-17T00:12:09;5.73;;;4.80;;
9997;SDS011;5038;53.064;8.624;2023-08-17T00:14:37;6.47;;;4.60;;
9997;SDS011;5038;53.064;8.624;2023-08-17T00:17:05;10.37;;;4.47;;
9997;SDS011;5038;53.064;8.624;2023-08-17T00:19:33;5.23;;;3.90;;
9997;SDS011;5038;53.064;8.624;2023-08-17T00:22:03;5.23;;;3.70;;
9997;SDS011;5038;53.064;8.624;2023-08-17T00:24:31;7.57;;;3.73;;
9997;SDS011;5038;53.064;8.624;2023-08-17T00:26:59;6.10;;;3.70;;
9997;SDS011;5038;53.064;8.624;2023-08-17T00:29:27;5.13;;;4.27;;
9997;SDS011;5038;53.064;8.624;2023-08-17T00:31:55;6.77;;;3.80;;
9997;SDS011;5038;53.064;8.624;2023-08-17T00:34:23;5.33;;;4.07;;
9997;SDS011;5038;53.064;8.624;2023-08-17T00:36:52;6.70;;;3.40;;
9997;SDS011;5038;53.064;8.624;2023-08-17T00:39:21;5.10;;;3.20;;
9997;SDS011;5038;53.064;8.624;2023-08-17T00:41:50;5.20;;;3.67;;
9997;SDS011;5038;53.064;8.624;2023-08-17T00:44:18;6.27;;;4.60;;
9997;SDS011;5038;53.064;8.624;2023-08-17T00:46:47;6.23;;;4.77;;
9997;SDS011;5038;53.064;8.624;2023-08-17T00:49:15;7.43;;;4.63;;
9997;SDS011;5038;53.064;8.624;2023-08-17T00:51:43;6.03;;;4.30;;
9997;SDS011;5038;53.064;8.624;2023-08-17T00:54:13;5.67;;;4.10;;
9997;SDS011;5038;53.064;8.624;2023-08-17T00:56:44;4.67;;;3.80;;
9997;SDS011;5038;53.064;8.624;2023-08-17T00:59:12;7.10;;;3.40;;
9997;SDS011;5038;53.064;8.624;2023-08-17T01:01:41;8.00;;;4.17;;
9997;SDS011;5038;53.064;8.624;2023-08-17T01:04:10;7.33;;;4.40;;
9997;SDS011;5038;53.064;8.624;2023-08-17T01:06:38;7.30;;;4.27;;
9997;SDS011;5038;53.064;8.624;2023-08-17T01:09:06;5.80;;;3.03;;
9997;SDS011;5038;53.064;8.624;2023-08-17T01:11:36;8.90;;;4.30;;
9997;SDS011;5038;53.064;8.624;2023-08-17T01:14:15;7.60;;;3.43;;
9997;SDS011;5038;53.064;8.624;2023-08-17T01:16:52;4.43;;;3.10;;
9997;SDS011;5038;53.064;8.624;2023-08-17T01:19:26;7.33;;;4.07;;
9997;SDS011;5038;53.064;8.624;2023-08-17T01:21:57;5.40;;;3.33;;
9997;SDS011;5038;53.064;8.624;2023-08-17T01:24:32;5.93;;;3.30;;
9997;SDS011;5038;53.064;8.624;2023-08-17T01:27:00;6.10;;;3.30;;
9997;SDS011;5038;53.064;8.624;2023-08-17T01:29:28;5.50;;;3.50;;
9997;SDS011;5038;53.064;8.624;2023-08-17T01:31:58;3.80;;;2.90;;
9997;SDS011;5038;53.064;8.624;2023-08-17T01:34:36;5.20;;;3.30;;
9997;SDS011;5038;53.064;8.624;2023-08-17T01:37:08;4.30;;;3.07;;
9997;SDS011;5038;53.064;8.624;2023-08-17T01:39:39;4.70;;;3.43;;
9997;SDS011;5038;53.064;8.624;2023-08-17T01:42:12;4.43;;;2.83;;
9997;SDS011;5038;53.064;8.624;2023-08-17T01:44:41;8.60;;;3.20;;
9997;SDS011;5038;53.064;8.624;2023-08-17T01:47:09;5.13;;;3.10;;
9997;SDS011;5038;53.064;8.624;2023-08-17T01:49:38;7.30;;;3.60;;
9997;SDS011;5038;53.064;8.624;2023-08-17T01:52:06;6.67;;;3.40;;
9997;SDS011;5038;53.064;8.624;2023-08-17T01:54:34;6.00;;;3.50;;
9997;SDS011;5038;53.064;8.624;2023-08-17T01:57:03;5.20;;;3.90;;
9997;SDS011;5038;53.064;8.624;2023-08-17T01:59:32;5.53;;;3.30;;
9997;SDS011;5038;53.064;8.624;2023-08-17T02:02:00;6.07;;;4.07;;
9997;SDS011;5038;53.064;8.624;2023-08-17T02:04:28;8.40;;;3.83;;
9997;SDS011;5038;53.064;8.624;2023-08-17T02:06:56;4.97;;;3.60;;
9997;SDS011;5038;53.064;8.624;2023-08-17T02:09:24;5.70;;;3.87;;
9997;SDS011;5038;53.064;8.624;2023-08-17T02:11:52;4.93;;;3.47;;
9997;SDS011;5038;53.064;8.624;2023-08-17T02:14:22;4.77;;;3.40;;
9997;SDS011;5038;53.064;8.624;2023-08-17T02:16:51;5.50;;;4.10;;
9997;SDS011;5038;53.064;8.624;2023-08-17T02:19:20;6.23;;;3.87;;
9997;SDS011;5038;53.064;8.624;2023-08-17T02:21:48;4.80;;;4.07;;
9997;SDS011;5038;53.064;8.624;2023-08-17T02:24:16;6.93;;;4.20;;
9997;SDS011;5038;53.064;8.624;2023-08-17T02:26:44;5.37;;;3.80;;
9997;SDS011;5038;53.064;8.624;2023-08-17T02:29:12;5.87;;;4.13;;
9997;SDS011;5038;53.064;8.624;2023-08-17T02:31:42;6.03;;;3.60;;
9997;SDS011;5038;53.064;8.624;2023-08-17T02:34:10;10.10;;;5.17;;
9997;SDS011;5038;53.064;8.624;2023-08-17T02:36:38;7.17;;;4.43;;
9997;SDS011;5038;53.064;8.624;2023-08-17T02:39:07;5.60;;;4.10;;
9997;SDS011;5038;53.064;8.624;2023-08-17T02:41:35;6.90;;;4.00;;
9997;SDS011;5038;53.064;8.624;2023-08-17T02:44:03;5.13;;;4.43;;
9997;SDS011;5038;53.064;8.624;2023-08-17T02:46:32;6.63;;;4.00;;
9997;SDS011;5038;53.064;8.624;2023-08-17T02:49:01;7.87;;;4.67;;
9997;SDS011;5038;53.064;8.624;2023-08-17T02:51:30;6.63;;;3.60;;
9997;SDS011;5038;53.064;8.624;2023-08-17T02:53:58;6.40;;;3.80;;
9997;SDS011;5038;53.064;8.624;2023-08-17T02:56:26;7.10;;;5.10;;
9997;SDS011;5038;53.064;8.624;2023-08-17T02:58:55;7.57;;;4.40;;
9997;SDS011;5038;53.064;8.624;2023-08-17T03:01:23;5.00;;;4.13;;
9997;SDS011;5038;53.064;8.624;2023-08-17T03:03:52;6.17;;;4.30;;
9997;SDS011;5038;53.064;8.624;2023-08-17T03:06:21;7.47;;;3.70;;
9997;SDS011;5038;53.064;8.624;2023-08-17T03:08:49;5.80;;;3.90;;
9997;SDS011;5038;53.064;8.624;2023-08-17T03:11:19;5.43;;;3.10;;
9997;SDS011;5038;53.064;8.624;2023-08-17T03:13:48;5.73;;;4.00;;
9997;SDS011;5038;53.064;8.624;2023-08-17T03:16:17;7.03;;;4.73;;
9997;SDS011;5038;53.064;8.624;2023-08-17T03:18:45;4.90;;;3.60;;
9997;SDS011;5038;53.064;8.624;2023-08-17T03:21:14;6.60;;;4.00;;
9997;SDS011;5038;53.064;8.624;2023-08-17T03:23:45;9.40;;;4.23;;
9997;SDS011;5038;53.064;8.624;2023-08-17T03:26:14;6.10;;;3.87;;
9997;SDS011;5038;53.064;8.624;2023-08-17T03:28:42;4.80;;;3.80;;
9997;SDS011;5038;53.064;8.624;2023-08-17T03:31:10;5.20;;;4.03;;
9997;SDS011;5038;53.064;8.624;2023-08-17T03:33:39;8.43;;;4.07;;
9997;SDS011;5038;53.064;8.624;2023-08-17T03:36:07;8.20;;;4.50;;
9997;SDS011;5038;53.064;8.624;2023-08-17T03:38:36;6.00;;;4.37;;
9997;SDS011;5038;53.064;8.624;2023-08-17T03:41:07;9.20;;;4.90;;
9997;SDS011;5038;53.064;8.624;2023-08-17T03:43:36;9.13;;;5.00;;
9997;SDS011;5038;53.064;8.624;2023-08-17T03:46:07;7.73;;;4.20;;
9997;SDS011;5038;53.064;8.624;2023-08-17T03:48:35;5.27;;;4.03;;
9997;SDS011;5038;53.064;8.624;2023-08-17T03:51:05;4.60;;;4.10;;
9997;SDS011;5038;53.064;8.624;2023-08-17T03:53:33;7.27;;;3.40;;
9997;SDS011;5038;53.064;8.624;2023-08-17T03:56:01;6.10;;;3.60;;
9997;SDS011;5038;53.064;8.624;2023-08-17T03:58:31;6.53;;;3.70;;
9997;SDS011;5038;53.064;8.624;2023-08-17T04:01:01;6.63;;;3.57;;
9997;SDS011;5038;53.064;8.624;2023-08-17T04:03:32;4.97;;;4.10;;
9997;SDS011;5038;53.064;8.624;2023-08-17T04:06:04;3.93;;;3.33;;
9997;SDS011;5038;53.064;8.624;2023-08-17T04:08:32;4.67;;;3.97;;
9997;SDS011;5038;53.064;8.624;2023-08-17T04:11:01;5.40;;;4.40;;
9997;SDS011;5038;53.064;8.624;2023-08-17T04:13:30;5.70;;;3.77;;
9997;SDS011;5038;53.064;8.624;2023-08-17T04:15:58;6.60;;;3.80;;
9997;SDS011;5038;53.064;8.624;2023-08-17T04:18:27;5.80;;;3.53;;
9997;SDS011;5038;53.064;8.624;2023-08-17T04:20:55;4.60;;;3.60;;
9997;SDS011;5038;53.064;8.624;2023-08-17T04:23:24;6.47;;;3.87;;
9997;SDS011;5038;53.064;8.624;2023-08-17T04:25:53;5.73;;;4.20;;
9997;SDS011;5038;53.064;8.624;2023-08-17T04:28:21;6.20;;;3.57;;
9997;SDS011;5038;53.064;8.624;2023-08-17T04:30:53;8.00;;;3.50;;
9997;SDS011;5038;53.064;8.624;2023-08-17T04:33:21;6.97;;;3.73;;
9997;SDS011;5038;53.064;8.624;2023-08-17T04:35:49;9.33;;;3.73;;
9997;SDS011;5038;53.064;8.624;2023-08-17T04:38:17;10.17;;;4.20;;
9997;SDS011;5038;53.064;8.624;2023-08-17T04:40:45;5.17;;;3.57;;
9997;SDS011;5038;53.064;8.624;2023-08-17T04:43:14;8.07;;;4.87;;
9997;SDS011;5038;53.064;8.624;2023-08-17T04:45:42;7.00;;;4.30;;
9997;SDS011;5038;53.064;8.624;2023-08-17T04:48:12;5.70;;;4.10;;
9997;SDS011;5038;53.064;8.624;2023-08-17T04:50:40;6.63;;;4.13;;
9997;SDS011;5038;53.064;8.624;2023-08-17T04:53:08;8.63;;;3.90;;
9997;SDS011;5038;53.064;8.624;2023-08-17T04:55:36;5.93;;;3.60;;
9997;SDS011;5038;53.064;8.624;2023-08-17T04:58:04;6.97;;;4.50;;
9997;SDS011;5038;53.064;8.624;2023-08-17T05:00:33;5.57;;;3.93;;
9997;SDS011;5038;53.064;8.624;2023-08-17T05:03:04;4.20;;;3.70;;
9997;SDS011;5038;53.064;8.624;2023-08-17T05:05:44;4.90;;;4.10;;
9997;SDS011;5038;53.064;8.624;2023-08-17T05:08:13;7.17;;;3.83;;
9997;SDS011;5038;53.064;8.624;2023-08-17T05:10:41;6.27;;;4.30;;
9997;SDS011;5038;53.064;8.624;2023-08-17T05:13:09;6.00;;;3.90;;
9997;SDS011;5038;53.064;8.624;2023-08-17T05:15:37;6.10;;;3.63;;
9997;SDS011;5038;53.064;8.624;2023-08-17T05:18:08;5.17;;;4.07;;
9997;SDS011;5038;53.064;8.624;2023-08-17T05:20:37;7.37;;;4.20;;
9997;SDS011;5038;53.064;8.624;2023-08-17T05:23:06;6.37;;;4.10;;
9997;SDS011;5038;53.064;8.624;2023-08-17T05:25:35;6.43;;;3.90;;
9997;SDS011;5038;53.064;8.624;2023-08-17T05:28:03;7.60;;;3.90;;
9997;SDS011;5038;53.064;8.624;2023-08-17T05:30:32;5.13;;;4.00;;
9997;SDS011;5038;53.064;8.624;2023-08-17T05:33:00;7.20;;;4.67;;
9997;SDS011;5038;53.064;8.624;2023-08-17T05:35:28;4.13;;;3.57;;
9997;SDS011;5038;53.064;8.624;2023-08-17T05:37:56;5.37;;;3.73;;
9997;SDS011;5038;53.064;8.624;2023-08-17T05:40:26;5.03;;;4.03;;
9997;SDS011;5038;53.064;8.624;2023-08-17T05:42:55;7.03;;;3.90;;
9997;SDS011;5038;53.064;8.624;2023-08-17T05:45:23;5.40;;;4.50;;
9997;SDS011;5038;53.064;8.624;2023-08-17T05:47:51;4.73;;;3.80;;
9997;SDS011;5038;53.064;8.624;2023-08-17T05:50:19;7.37;;;4.67;;
9997;SDS011;5038;53.064;8.624;2023-08-17T05:52:47;5.07;;;3.30;;
9997;SDS011;5038;53.064;8.624;2023-08-17T05:55:15;4.70;;;3.70;;
9997;SDS011;5038;53.064;8.624;2023-08-17T05:57:45;5.40;;;3.90;;
9997;SDS011;5038;53.064;8.624;2023-08-17T06:00:13;5.17;;;4.00;;
9997;SDS011;5038;53.064;8.624;2023-08-17T06:02:42;5.63;;;4.00;;
9997;SDS011;5038;53.064;8.624;2023-08-17T06:05:10;7.90;;;4.50;;
9997;SDS011;5038;53.064;8.624;2023-08-17T06:07:38;5.83;;;4.20;;
9997;SDS011;5038;53.064;8.624;2023-08-17T06:10:06;7.70;;;4.93;;
9997;SDS011;5038;53.064;8.624;2023-08-17T06:12:35;5.83;;;4.33;;
9997;SDS011;5038;53.064;8.624;2023-08-17T06:15:05;5.70;;;3.80;;
9997;SDS011;5038;53.064;8.624;2023-08-17T06:17:34;6.73;;;4.30;;
9997;SDS011;5038;53.064;8.624;2023-08-17T06:20:03;5.90;;;4.60;;
9997;SDS011;5038;53.064;8.624;2023-08-17T06:22:36;6.27;;;4.33;;
9997;SDS011;5038;53.064;8.624;2023-08-17T06:25:04;6.40;;;4.90;;
9997;SDS011;5038;53.064;8.624;2023-08-17T06:27:34;5.33;;;3.73;;
9997;SDS011;5038;53.064;8.624;2023-08-17T06:30:02;5.20;;;4.20;;
9997;SDS011;5038;53.064;8.624;2023-08-17T06:32:32;7.07;;;4.70;;
9997;SDS011;5038;53.064;8.624;2023-08-17T06:35:01;5.00;;;4.50;;
9997;SDS011;5038;53.064;8.624;2023-08-17T06:37:29;6.00;;;4.50;;
9997;SDS011;5038;53.064;8.624;2023-08-17T06:39:57;8.50;;;5.00;;
9997;SDS011;5038;53.064;8.624;2023-08-17T06:42:25;6.80;;;4.30;;
9997;SDS011;5038;53.064;8.624;2023-08-17T06:44:53;6.70;;;4.50;;
9997;SDS011;5038;53.064;8.624;2023-08-17T06:47:22;5.57;;;4.80;;
9997;SDS011;5038;53.064;8.624;2023-08-17T06:49:52;7.10;;;5.37;;
9997;SDS011;5038;53.064;8.624;2023-08-17T06:52:20;4.93;;;4.30;;
9997;SDS011;5038;53.064;8.624;2023-08-17T06:54:48;4.73;;;4.17;;
9997;SDS011;5038;53.064;8.624;2023-08-17T06:57:16;7.63;;;4.83;;
9997;SDS011;5038;53.064;8.624;2023-08-17T06:59:45;7.50;;;5.10;;
9997;SDS011;5038;53.064;8.624;2023-08-17T07:02:13;5.93;;;4.93;;
9997;SDS011;5038;53.064;8.624;2023-08-17T07:04:41;7.27;;;5.23;;
9997;SDS011;5038;53.064;8.624;2023-08-17T07:07:11;6.90;;;6.13;;
9997;SDS011;5038;53.064;8.624;2023-08-17T07:09:40;7.90;;;5.87;;
9997;SDS011;5038;53.064;8.624;2023-08-17T07:12:08;8.60;;;6.40;;
9997;SDS011;5038;53.064;8.624;2023-08-17T07:14:37;10.53;;;6.97;;
9997;SDS011;5038;53.064;8.624;2023-08-17T07:17:05;6.80;;;6.20;;
9997;SDS011;5038;53.064;8.624;2023-08-17T07:19:33;6.53;;;5.80;;
9997;SDS011;5038;53.064;8.624;2023-08-17T07:22:22;6.10;;;5.37;;
9997;SDS011;5038;53.064;8.624;2023-08-17T07:24:51;6.60;;;6.00;;
9997;SDS011;5038;53.064;8.624;2023-08-17T07:27:19;6.83;;;6.13;;
9997;SDS011;5038;53.064;8.624;2023-08-17T07:29:48;7.20;;;6.60;;
9997;SDS011;5038;53.064;8.624;2023-08-17T07:32:16;6.33;;;5.63;;
9997;SDS011;5038;53.064;8.624;2023-08-17T07:34:44;7.27;;;6.57;;
9997;SDS011;5038;53.064;8.624;2023-08-17T07:37:12;6.80;;;6.17;;
9997;SDS011;5038;53.064;8.624;2023-08-17T07:39:43;7.17;;;6.20;;
9997;SDS011;5038;53.064;8.624;2023-08-17T07:42:11;6.60;;;6.00;;
9997;SDS011;5038;53.064;8.624;2023-08-17T07:44:39;6.80;;;6.17;;
9997;SDS011;5038;53.064;8.624;2023-08-17T07:47:08;6.63;;;5.50;;
9997;SDS011;5038;53.064;8.624;2023-08-17T07:49:36;8.30;;;5.60;;
9997;SDS011;5038;53.064;8.624;2023-08-17T07:52:04;7.50;;;5.40;;
9997;SDS011;5038;53.064;8.624;2023-08-17T07:54:33;6.93;;;5.23;;
9997;SDS011;5038;53.064;8.624;2023-08-17T07:57:02;7.83;;;5.13;;
9997;SDS011;5038;53.064;8.624;2023-08-17T07:59:30;6.17;;;5.57;;
9997;SDS011;5038;53.064;8.624;2023-08-17T08:01:58;6.87;;;4.80;;
9997;SDS011;5038;53.064;8.624;2023-08-17T08:04:27;5.10;;;4.60;;
9997;SDS011;5038;53.064;8.624;2023-08-17T08:06:55;5.83;;;5.10;;
9997;SDS011;5038;53.064;8.624;2023-08-17T08:09:23;5.43;;;4.93;;
9997;SDS011;5038;53.064;8.624;2023-08-17T08:11:51;5.07;;;4.57;;
9997;SDS011;5038;53.064;8.624;2023-08-17T08:14:20;4.63;;;4.20;;
9997;SDS011;5038;53.064;8.624;2023-08-17T08:16:48;5.67;;;4.23;;
9997;SDS011;5038;53.064;8.624;2023-08-17T08:19:17;4.43;;;4.03;;
9997;SDS011;5038;53.064;8.624;2023-08-17T08:21:45;5.17;;;4.67;;
9997;SDS011;5038;53.064;8.624;2023-08-17T08:24:13;5.10;;;4.20;;
9997;SDS011;5038;53.064;8.624;2023-08-17T08:26:56;4.37;;;3.97;;
9997;SDS011;5038;53.064;8.624;2023-08-17T08:29:25;5.03;;;3.70;;
9997;SDS011;5038;53.064;8.624;2023-08-17T08:31:53;5.63;;;3.30;;
9997;SDS011;5038;53.064;8.624;2023-08-17T08:34:23;4.77;;;3.37;;
9997;SDS011;5038;53.064;8.624;2023-08-17T08:36:51;3.80;;;3.20;;
9997;SDS011;5038;53.064;8.624;2023-08-17T08:39:19;4.27;;;3.40;;
9997;SDS011;5038;53.064;8.624;2023-08-17T08:41:48;3.93;;;3.60;;
9997;SDS011;5038;53.064;8.624;2023-08-17T08:44:16;3.20;;;2.90;;
9997;SDS011;5038;53.064;8.624;2023-08-17T08:46:45;6.63;;;3.73;;
9997;SDS011;5038;53.064;8.624;2023-08-17T08:49:17;4.10;;;3.70;;
9997;SDS011;5038;53.064;8.624;2023-08-17T08:51:50;3.97;;;3.67;;
9997;SDS011;5038;53.064;8.624;2023-08-17T08:54:20;4.70;;;3.73;;
9997;SDS011;5038;53.064;8.624;2023-08-17T08:56:50;5.27;;;3.60;;
9997;SDS011;5038;53.064;8.624;2023-08-17T08:59:22;4.30;;;3.90;;
9997;SDS011;5038;53.064;8.624;2023-08-17T09:01:54;4.70;;;4.00;;
9997;SDS011;5038;53.064;8.624;2023-08-17T09:04:24;4.00;;;3.70;;
9997;SDS011;5038;53.064;8.624;2023-08-17T09:06:53;4.53;;;4.13;;
9997;SDS011;5038;53.064;8.624;2023-08-17T09:09:23;4.20;;;3.80;;
9997;SDS011;5038;53.064;8.624;2023-08-17T09:11:54;5.07;;;3.93;;
9997;SDS011;5038;53.064;8.624;2023-08-17T09:14:22;5.03;;;3.07;;
9997;SDS011;5038;53.064;8.624;2023-08-17T09:16:50;4.33;;;3.77;;
9997;SDS011;5038;53.064;8.624;2023-08-17T09:19:19;4.13;;;3.37;;
9997;SDS011;5038;53.064;8.624;2023-08-17T09:21:48;3.83;;;3.53;;
9997;SDS011;5038;53.064;8.624;2023-08-17T09:24:17;3.73;;;3.30;;
9997;SDS011;5038;53.064;8.624;2023-08-17T09:26:45;3.50;;;3.20;;
9997;SDS011;5038;53.064;8.624;2023-08-17T09:29:17;3.60;;;3.30;;
9997;SDS011;5038;53.064;8.624;2023-08-17T09:31:45;3.20;;;2.90;;
9997;SDS011;5038;53.064;8.624;2023-08-17T09:34:14;3.07;;;2.67;;
9997;SDS011;5038;53.064;8.624;2023-08-17T09:36:46;3.13;;;2.43;;
9997;SDS011;5038;53.064;8.624;2023-08-17T09:39:15;2.67;;;2.40;;
9997;SDS011;5038;53.064;8.624;2023-08-17T09:41:45;3.03;;;2.70;;
9997;SDS011;5038;53.064;8.624;2023-08-17T09:44:13;2.93;;;2.20;;
9997;SDS011;5038;53.064;8.624;2023-08-17T09:46:44;2.80;;;2.23;;
9997;SDS011;5038;53.064;8.624;2023-08-17T09:49:12;2.70;;;1.93;;
9997;SDS011;5038;53.064;8.624;2023-08-17T09:51:42;3.17;;;2.00;;
9997;SDS011;5038;53.064;8.624;2023-08-17T09:54:19;3.80;;;2.00;;
9997;SDS011;5038;53.064;8.624;2023-08-17T09:56:49;4.37;;;2.17;;
9997;SDS011;5038;53.064;8.624;2023-08-17T09:59:18;3.43;;;1.83;;
9997;SDS011;5038;53.064;8.624;2023-08-17T10:01:47;3.33;;;1.97;;
9997;SDS011;5038;53.064;8.624;2023-08-17T10:04:20;3.63;;;2.03;;
9997;SDS011;5038;53.064;8.624;2023-08-17T10:06:51;2.73;;;2.10;;
9997;SDS011;5038;53.064;8.624;2023-08-17T10:09:28;2.77;;;2.13;;
9997;SDS011;5038;53.064;8.624;2023-08-17T10:12:02;2.30;;;2.10;;
9997;SDS011;5038;53.064;8.624;2023-08-17T10:14:39;2.90;;;2.47;;
9997;SDS011;5038;53.064;8.624;2023-08-17T10:17:14;4.90;;;3.03;;
9997;SDS011;5038;53.064;8.624;2023-08-17T10:19:49;4.43;;;2.37;;
9997;SDS011;5038;53.064;8.624;2023-08-17T10:22:20;4.30;;;2.40;;
9997;SDS011;5038;53.064;8.624;2023-08-17T10:24:55;3.10;;;2.77;;
9997;SDS011;5038;53.064;8.624;2023-08-17T10:27:24;4.17;;;2.60;;
9997;SDS011;5038;53.064;8.624;2023-08-17T10:29:54;3.27;;;2.50;;
9997;SDS011;5038;53.064;8.624;2023-08-17T10:32:23;2.83;;;2.50;;
9997;SDS011;5038;53.064;8.624;2023-08-17T10:34:53;2.87;;;2.57;;
9997;SDS011;5038;53.064;8.624;2023-08-17T10:37:21;3.03;;;2.73;;
9997;SDS011;5038;53.064;8.624;2023-08-17T10:39:51;3.20;;;2.90;;
9997;SDS011;5038;53.064;8.624;2023-08-17T10:42:31;4.93;;;2.90;;
9997;SDS011;5038;53.064;8.624;2023-08-17T10:45:00;3.50;;;2.80;;
9997;SDS011;5038;53.064;8.624;2023-08-17T10:47:30;3.80;;;3.07;;
9997;SDS011;5038;53.064;8.624;2023-08-17T10:50:03;3.70;;;2.90;;
9997;SDS011;5038;53.064;8.624;2023-08-17T10:52:35;3.43;;;2.90;;
9997;SDS011;5038;53.064;8.624;2023-08-17T10:55:05;4.97;;;2.90;;
9997;SDS011;5038;53.064;8.624;2023-08-17T10:57:36;4.80;;;3.40;;
9997;SDS011;5038;53.064;8.624;2023-08-17T11:00:15;4.10;;;2.93;;
9997;SDS011;5038;53.064;8.624;2023-08-17T11:02:51;2.93;;;2.60;;
9997;SDS011;5038;53.064;8.624;2023-08-17T11:05:35;3.60;;;2.80;;
9997;SDS011;5038;53.064;8.624;2023-08-17T11:08:09;5.10;;;3.10;;
9997;SDS011;5038;53.064;8.624;2023-08-17T11:10:40;3.43;;;2.80;;
9997;SDS011;5038;53.064;8.624;2023-08-17T11:13:16;3.00;;;2.60;;
9997;SDS011;5038;53.064;8.624;2023-08-17T11:15:44;3.77;;;3.00;;
9997;SDS011;5038;53.064;8.624;2023-08-17T11:18:14;3.33;;;3.00;;
9997;SDS011;5038;53.064;8.624;2023-08-17T11:20:43;4.13;;;2.70;;
9997;SDS011;5038;53.064;8.624;2023-08-17T11:23:11;3.80;;;2.83;;
9997;SDS011;5038;53.064;8.624;2023-08-17T11:25:42;6.27;;;2.80;;
9997;SDS011;5038;53.064;8.624;2023-08-17T11:28:10;3.57;;;3.10;;
9997;SDS011;5038;53.064;8.624;2023-08-17T11:30:41;3.00;;;2.47;;
9997;SDS011;5038;53.064;8.624;2023-08-17T11:33:13;3.20;;;2.90;;
9997;SDS011;5038;53.064;8.624;2023-08-17T11:35:41;3.30;;;3.00;;
9997;SDS011;5038;53.064;8.624;2023-08-17T11:38:09;4.63;;;3.20;;
9997;SDS011;5038;53.064;8.624;2023-08-17T11:40:37;3.30;;;2.67;;
9997;SDS011;5038;53.064;8.624;2023-08-17T11:43:05;3.60;;;3.30;;
9997;SDS011;5038;53.064;8.624;2023-08-17T11:45:35;3.30;;;3.00;;
9997;SDS011;5038;53.064;8.624;2023-08-17T11:48:05;3.40;;;3.10;;
9997;SDS011;5038;53.064;8.624;2023-08-17T11:50:33;3.60;;;3.30;;
9997;SDS011;5038;53.064;8.624;2023-08-17T11:53:05;3.83;;;3.40;;
9997;SDS011;5038;53.064;8.624;2023-08-17T11:55:33;3.13;;;2.83;;
9997;SDS011;5038;53.064;8.624;2023-08-17T11:58:01;4.03;;;3.00;;
9997;SDS011;5038;53.064;8.624;2023-08-17T12:00:36;5.83;;;3.40;;
9997;SDS011;5038;53.064;8.624;2023-08-17T12:03:12;3.43;;;3.13;;
9997;SDS011;5038;53.064;8.624;2023-08-17T12:05:41;3.90;;;3.30;;
9997;SDS011;5038;53.064;8.624;2023-08-17T12:08:10;3.50;;;3.20;;
9997;SDS011;5038;53.064;8.624;2023-08-17T12:10:41;3.20;;;2.80;;
9997;SDS011;5038;53.064;8.624;2023-08-17T12:13:11;3.63;;;3.33;;
9997;SDS011;5038;53.064;8.624;2023-08-17T12:15:41;6.23;;;3.50;;
9997;SDS011;5038;53.064;8.624;2023-08-17T12:18:11;4.23;;;3.47;;
9997;SDS011;5038;53.064;8.624;2023-08-17T12:20:39;4.57;;;3.03;;
9997;SDS011;5038;53.064;8.624;2023-08-17T12:23:10;4.90;;;3.17;;
9997;SDS011;5038;53.064;8.624;2023-08-17T12:25:38;5.10;;;3.57;;
9997;SDS011;5038;53.064;8.624;2023-08-17T12:28:06;3.40;;;3.10;;
9997;SDS011;5038;53.064;8.624;2023-08-17T12:30:34;4.03;;;3.10;;
9997;SDS011;5038;53.064;8.624;2023-08-17T12:33:04;4.30;;;2.80;;
9997;SDS011;5038;53.064;8.624;2023-08-17T12:35:33;3.17;;;2.90;;
9997;SDS011;5038;53.064;8.624;2023-08-17T12:38:02;4.20;;;2.77;;
9997;SDS011;5038;53.064;8.624;2023-08-17T12:40:32;3.40;;;3.10;;
9997;SDS011;5038;53.064;8.624;2023-08-17T12:43:00;3.23;;;2.93;;
9997;SDS011;5038;53.064;8.624;2023-08-17T12:45:28;4.57;;;3.03;;
9997;SDS011;5038;53.064;8.624;2023-08-17T12:47:57;3.90;;;2.93;;
9997;SDS011;5038;53.064;8.624;2023-08-17T12:50:26;4.43;;;3.50;;
9997;SDS011;5038;53.064;8.624;2023-08-17T12:52:56;3.60;;;3.30;;
9997;SDS011;5038;53.064;8.624;2023-08-17T12:55:24;3.70;;;2.70;;
9997;SDS011;5038;53.064;8.624;2023-08-17T12:57:52;4.23;;;3.27;;
9997;SDS011;5038;53.064;8.624;2023-08-17T13:00:27;3.90;;;3.30;;
9997;SDS011;5038;53.064;8.624;2023-08-17T13:02:55;3.23;;;2.93;;
9997;SDS011;5038;53.064;8.624;2023-08-17T13:05:23;3.30;;;3.00;;
9997;SDS011;5038;53.064;8.624;2023-08-17T13:07:51;2.50;;;2.30;;
9997;SDS011;5038;53.064;8.624;2023-08-17T13:10:21;3.70;;;2.90;;
9997;SDS011;5038;53.064;8.624;2023-08-17T13:12:49;2.97;;;2.40;;
9997;SDS011;5038;53.064;8.624;2023-08-17T13:15:21;2.37;;;2.00;;
9997;SDS011;5038;53.064;8.624;2023-08-17T13:17:49;2.10;;;1.90;;
9997;SDS011;5038;53.064;8.624;2023-08-17T13:20:17;2.00;;;1.80;;
9997;SDS011;5038;53.064;8.624;2023-08-17T13:22:46;2.73;;;2.03;;
9997;SDS011;5038;53.064;8.624;2023-08-17T13:25:14;1.97;;;1.80;;
9997;SDS011;5038;53.064;8.624;2023-08-17T13:27:44;1.80;;;1.60;;
9997;SDS011;5038;53.064;8.624;2023-08-17T13:30:12;2.57;;;1.80;;
9997;SDS011;5038;53.064;8.624;2023-08-17T13:32:40;1.50;;;1.40;;
9997;SDS011;5038;53.064;8.624;2023-08-17T13:35:12;3.20;;;1.90;;
9997;SDS011;5038;53.064;8.624;2023-08-17T13:37:40;2.30;;;1.90;;
9997;SDS011;5038;53.064;8.624;2023-08-17T13:40:09;1.87;;;1.77;;
9997;SDS011;5038;53.064;8.624;2023-08-17T13:42:37;1.87;;;1.40;;
9997;SDS011;5038;53.064;8.624;2023-08-17T13:45:07;2.30;;;1.90;;
9997;SDS011;5038;53.064;8.624;2023-08-17T13:47:36;2.27;;;1.73;;
9997;SDS011;5038;53.064;8.624;2023-08-17T13:50:04;2.20;;;2.00;;
9997;SDS011;5038;53.064;8.624;2023-08-17T13:52:33;3.20;;;2.90;;
9997;SDS011;5038;53.064;8.624;2023-08-17T13:55:01;4.50;;;3.37;;
9997;SDS011;5038;53.064;8.624;2023-08-17T13:57:29;2.90;;;2.10;;
9997;SDS011;5038;53.064;8.624;2023-08-17T13:59:57;2.23;;;1.87;;
9997;SDS011;5038;53.064;8.624;2023-08-17T14:02:27;2.00;;;1.80;;
9997;SDS011;5038;53.064;8.624;2023-08-17T14:04:57;2.23;;;1.80;;
9997;SDS011;5038;53.064;8.624;2023-08-17T14:07:25;2.57;;;2.00;;
9997;SDS011;5038;53.064;8.624;2023-08-17T14:09:53;2.10;;;1.67;;
9997;SDS011;5038;53.064;8.624;2023-08-17T14:12:36;2.03;;;1.50;;
9997;SDS011;5038;53.064;8.624;2023-08-17T14:15:04;3.07;;;1.60;;
9997;SDS011;5038;53.064;8.624;2023-08-17T14:17:34;2.77;;;1.43;;
9997;SDS011;5038;53.064;8.624;2023-08-17T14:20:03;2.27;;;1.70;;
9997;SDS011;5038;53.064;8.624;2023-08-17T14:22:32;3.10;;;1.50;;
9997;SDS011;5038;53.064;8.624;2023-08-17T14:25:00;2.60;;;1.53;;
9997;SDS011;5038;53.064;8.624;2023-08-17T14:27:29;2.17;;;1.50;;
9997;SDS011;5038;53.064;8.624;2023-08-17T14:29:57;2.30;;;1.60;;
9997;SDS011;5038;53.064;8.624;2023-08-17T14:32:27;1.70;;;1.40;;
9997;SDS011;5038;53.064;8.624;2023-08-17T14:35:02;2.13;;;1.37;;
9997;SDS011;5038;53.064;8.624;2023-08-17T14:37:30;1.80;;;1.50;;
9997;SDS011;5038;53.064;8.624;2023-08-17T14:39:59;3.97;;;1.70;;
9997;SDS011;5038;53.064;8.624;2023-08-17T14:42:27;2.00;;;1.47;;
9997;SDS011;5038;53.064;8.624;2023-08-17T14:44:56;2.13;;;1.40;;
9997;SDS011;5038;53.064;8.624;2023-08-17T14:47:24;1.70;;;1.50;;
9997;SDS011;5038;53.064;8.624;2023-08-17T14:49:52;3.67;;;1.50;;
9997;SDS011;5038;53.064;8.624;2023-08-17T14:52:23;1.77;;;1.43;;
9997;SDS011;5038;53.064;8.624;2023-08-17T14:54:59;2.13;;;1.50;;
9997;SDS011;5038;53.064;8.624;2023-08-17T14:57:27;1.90;;;1.60;;
9997;SDS011;5038;53.064;8.624;2023-08-17T14:59:55;1.90;;;1.47;;
9997;SDS011;5038;53.064;8.624;2023-08-17T15:02:23;2.00;;;1.23;;
9997;SDS011;5038;53.064;8.624;2023-08-17T15:04:51;3.73;;;2.07;;
9997;SDS011;5038;53.064;8.624;2023-08-17T15:07:19;2.60;;;1.23;;
9997;SDS011;5038;53.064;8.624;2023-08-17T15:09:49;3.03;;;1.80;;
9997;SDS011;5038;53.064;8.624;2023-08-17T15:12:17;2.13;;;1.40;;
9997;SDS011;5038;53.064;8.624;2023-08-17T15:14:48;2.73;;;1.50;;
9997;SDS011;5038;53.064;8.624;2023-08-17T15:17:16;2.20;;;1.40;;
9997;SDS011;5038;53.064;8.624;2023-08-17T15:19:44;2.43;;;1.60;;
9997;SDS011;5038;53.064;8.624;2023-08-17T15:22:13;2.30;;;1.30;;
9997;SDS011;5038;53.064;8.624;2023-08-17T15:24:41;2.00;;;1.57;;
9997;SDS011;5038;53.064;8.624;2023-08-17T15:27:12;2.10;;;1.30;;
9997;SDS011;5038;53.064;8.624;2023-08-17T15:29:40;2.43;;;1.53;;